Wetterdaten: Woche 16.01.12 - 22.01.12 (KW3)
Datum Zeit Temperatur Luftfeuchte Luftdruck Niederschlag Windrichtung Sonnenschein Solar Wind
16.01.2012 00:00 -3,8 C 89 % 1023,4 hPa 0,0 l/m NO 0,00 h 0 W/m 12,4 km/h (3 Bft)
16.01.2012 01:00 -4,1 C 89 % 1023,4 hPa 0,0 l/m NO 0,00 h 0 W/m 11,0 km/h (2 Bft)
16.01.2012 02:00 -4,3 C 89 % 1023,6 hPa 0,0 l/m O-NO 0,00 h 0 W/m 11,4 km/h (2 Bft)
16.01.2012 03:00 -4,5 C 89 % 1023,7 hPa 0,0 l/m O-NO 0,00 h 0 W/m 10,8 km/h (2 Bft)
16.01.2012 04:00 -4,8 C 90 % 1023,6 hPa 0,0 l/m NO 0,00 h 0 W/m 9,4 km/h (2 Bft)
16.01.2012 05:00 -5,2 C 91 % 1023,7 hPa 0,0 l/m N-NO 0,00 h 0 W/m 8,3 km/h (2 Bft)
16.01.2012 06:00 -5,7 C 91 % 1023,7 hPa 0,0 l/m N-NO 0,00 h 0 W/m 8,7 km/h (2 Bft)
16.01.2012 07:00 -6,0 C 92 % 1023,9 hPa 0,0 l/m N-NO 0,00 h 0 W/m 9,3 km/h (2 Bft)
16.01.2012 08:00 -6,2 C 93 % 1024,5 hPa 0,0 l/m N-NO 0,00 h 13 W/m 9,0 km/h (2 Bft)
16.01.2012 09:00 -5,4 C 92 % 1024,8 hPa 0,0 l/m O-NO 0,08 h 37 W/m 13,8 km/h (3 Bft)
16.01.2012 10:00 -4,2 C 89 % 1025,2 hPa 0,0 l/m O-NO 0,92 h 231 W/m 12,2 km/h (2 Bft)
16.01.2012 11:00 -2,7 C 84 % 1025,2 hPa 0,0 l/m O-NO 1,00 h 325 W/m 14,5 km/h (3 Bft)
16.01.2012 12:00 -1,5 C 76 % 1025,1 hPa 0,0 l/m O-NO 1,00 h 360 W/m 19,4 km/h (3 Bft)
16.01.2012 13:00 -0,6 C 73 % 1024,6 hPa 0,0 l/m O-NO 1,00 h 333 W/m 15,8 km/h (3 Bft)
16.01.2012 14:00 -0,1 C 69 % 1024,4 hPa 0,0 l/m NO 1,00 h 264 W/m 15,3 km/h (3 Bft)
16.01.2012 15:00 -0,1 C 71 % 1024,7 hPa 0,0 l/m O-NO 0,75 h 124 W/m 15,0 km/h (3 Bft)
16.01.2012 16:00 -0,6 C 74 % 1025,2 hPa 0,0 l/m O 0,08 h 23 W/m 11,6 km/h (2 Bft)
16.01.2012 17:00 -1,6 C 77 % 1025,7 hPa 0,0 l/m NO 0,00 h 0 W/m 6,4 km/h (2 Bft)
16.01.2012 18:00 -2,5 C 80 % 1026,3 hPa 0,0 l/m NO 0,00 h 0 W/m 4,5 km/h (1 Bft)
16.01.2012 19:00 -3,3 C 83 % 1026,8 hPa 0,0 l/m NO 0,00 h 0 W/m 4,3 km/h (1 Bft)
16.01.2012 20:00 -3,9 C 86 % 1027,3 hPa 0,0 l/m N-NO 0,00 h 0 W/m 5,5 km/h (1 Bft)
16.01.2012 21:00 -4,4 C 88 % 1027,4 hPa 0,0 l/m N-NO 0,00 h 0 W/m 4,9 km/h (1 Bft)
16.01.2012 22:00 -5,0 C 89 % 1027,6 hPa 0,0 l/m N-NO 0,00 h 0 W/m 4,0 km/h (1 Bft)
16.01.2012 23:00 -5,4 C 90 % 1027,8 hPa 0,0 l/m N-NO 0,00 h 0 W/m 3,5 km/h (1 Bft)
17.01.2012 00:00 -5,9 C 91 % 1028,0 hPa 0,0 l/m N 0,00 h 0 W/m 1,5 km/h (1 Bft)
17.01.2012 01:00 -6,3 C 91 % 1028,0 hPa 0,0 l/m N-NO 0,00 h 0 W/m 1,7 km/h (1 Bft)
17.01.2012 02:00 -6,7 C 92 % 1028,2 hPa 0,0 l/m N 0,00 h 0 W/m 0,8 km/h (0 Bft)
17.01.2012 03:00 -7,1 C 92 % 1028,7 hPa 0,0 l/m N 0,00 h 0 W/m 0,1 km/h (0 Bft)
17.01.2012 04:00 -7,4 C 92 % 1028,6 hPa 0,0 l/m N 0,00 h 0 W/m 0,0 km/h (0 Bft)
17.01.2012 05:00 -7,7 C 92 % 1029,2 hPa 0,0 l/m N 0,00 h 0 W/m 0,3 km/h (0 Bft)
17.01.2012 06:00 -8,0 C 92 % 1029,4 hPa 0,0 l/m N 0,00 h 0 W/m 0,9 km/h (0 Bft)
17.01.2012 07:00 -8,3 C 93 % 1029,9 hPa 0,0 l/m N 0,00 h 0 W/m 0,8 km/h (0 Bft)
17.01.2012 08:00 -8,3 C 93 % 1030,5 hPa 0,0 l/m N 0,00 h 21 W/m 0,4 km/h (0 Bft)
17.01.2012 09:00 -7,4 C 94 % 1031,2 hPa 0,0 l/m SW 0,00 h 54 W/m 1,3 km/h (1 Bft)
17.01.2012 10:00 -4,8 C 94 % 1031,5 hPa 0,0 l/m S-SW 0,00 h 116 W/m 5,7 km/h (1 Bft)
17.01.2012 11:00 -3,3 C 92 % 1031,6 hPa 0,0 l/m S-SW 0,67 h 270 W/m 9,4 km/h (2 Bft)
17.01.2012 12:00 -1,5 C 88 % 1031,3 hPa 0,0 l/m S 0,92 h 248 W/m 10,5 km/h (2 Bft)
17.01.2012 13:00 -0,7 C 86 % 1030,8 hPa 0,0 l/m S-SW 1,00 h 280 W/m 10,2 km/h (2 Bft)
17.01.2012 14:00 0,9 C 82 % 1030,6 hPa 0,0 l/m S-SW 1,00 h 261 W/m 9,5 km/h (2 Bft)
17.01.2012 15:00 1,1 C 80 % 1030,7 hPa 0,0 l/m S-SW 0,83 h 129 W/m 9,0 km/h (2 Bft)
17.01.2012 16:00 0,4 C 81 % 1030,9 hPa 0,0 l/m S-SW 0,17 h 26 W/m 7,2 km/h (2 Bft)
17.01.2012 17:00 -0,5 C 83 % 1031,4 hPa 0,0 l/m N 0,00 h 0 W/m 2,8 km/h (1 Bft)
17.01.2012 18:00 -1,4 C 84 % 1031,8 hPa 0,0 l/m N 0,00 h 0 W/m 0,5 km/h (0 Bft)
17.01.2012 19:00 -2,4 C 85 % 1031,9 hPa 0,0 l/m N 0,00 h 0 W/m 0,4 km/h (0 Bft)
17.01.2012 20:00 -3,3 C 88 % 1032,2 hPa 0,0 l/m N 0,00 h 0 W/m 0,0 km/h (0 Bft)
17.01.2012 21:00 -4,0 C 88 % 1032,4 hPa 0,0 l/m N 0,00 h 0 W/m 0,0 km/h (0 Bft)
17.01.2012 22:00 -4,7 C 90 % 1032,6 hPa 0,0 l/m N 0,00 h 0 W/m 0,0 km/h (0 Bft)
17.01.2012 23:00 -5,3 C 90 % 1032,6 hPa 0,0 l/m N 0,00 h 0 W/m 0,0 km/h (0 Bft)
18.01.2012 00:00 -5,8 C 91 % 1032,8 hPa 0,0 l/m N 0,00 h 0 W/m 0,1 km/h (0 Bft)
18.01.2012 01:00 -6,2 C 92 % 1033,1 hPa 0,0 l/m N 0,00 h 0 W/m 0,0 km/h (0 Bft)
18.01.2012 02:00 -6,6 C 92 % 1033,0 hPa 0,0 l/m N 0,00 h 0 W/m 0,0 km/h (0 Bft)
18.01.2012 03:00 -7,0 C 92 % 1033,0 hPa 0,0 l/m N 0,00 h 0 W/m 0,0 km/h (0 Bft)
18.01.2012 04:00 -7,4 C 92 % 1033,1 hPa 0,0 l/m N 0,00 h 0 W/m 0,0 km/h (0 Bft)
18.01.2012 05:00 -7,7 C 92 % 1033,1 hPa 0,0 l/m N 0,00 h 0 W/m 0,0 km/h (0 Bft)
18.01.2012 06:00 -7,9 C 92 % 1033,5 hPa 0,0 l/m N 0,00 h 0 W/m 0,0 km/h (0 Bft)
18.01.2012 07:00 -8,1 C 92 % 1033,7 hPa 0,0 l/m N 0,00 h 0 W/m 0,0 km/h (0 Bft)
18.01.2012 08:00 -8,2 C 92 % 1033,9 hPa 0,0 l/m N 0,00 h 14 W/m 0,0 km/h (0 Bft)
18.01.2012 09:00 -7,6 C 94 % 1033,7 hPa 0,0 l/m N 0,08 h 42 W/m 0,9 km/h (0 Bft)
18.01.2012 10:00 -4,8 C 95 % 1033,7 hPa 0,0 l/m S-SW 1,00 h 233 W/m 1,7 km/h (1 Bft)
18.01.2012 11:00 -0,6 C 89 % 1033,3 hPa 0,2 l/m S-SW 1,00 h 318 W/m 6,8 km/h (2 Bft)
18.01.2012 12:00 1,5 C 81 % 1032,7 hPa 0,0 l/m S 1,00 h 325 W/m 7,8 km/h (2 Bft)
18.01.2012 13:00 2,9 C 75 % 1032,1 hPa 0,0 l/m S-SW 1,00 h 324 W/m 10,1 km/h (2 Bft)
18.01.2012 14:00 3,9 C 73 % 1031,6 hPa 0,0 l/m S 1,00 h 266 W/m 9,8 km/h (2 Bft)
18.01.2012 15:00 3,5 C 75 % 1031,4 hPa 0,0 l/m S-SW 0,83 h 131 W/m 11,3 km/h (2 Bft)
18.01.2012 16:00 2,3 C 78 % 1031,5 hPa 0,0 l/m S-SW 0,33 h 29 W/m 9,5 km/h (2 Bft)
18.01.2012 17:00 1,0 C 82 % 1031,5 hPa 0,0 l/m S-SW 0,00 h 0 W/m 8,0 km/h (2 Bft)
18.01.2012 18:00 -0,2 C 86 % 1031,6 hPa 0,0 l/m S-SW 0,00 h 0 W/m 4,4 km/h (1 Bft)
18.01.2012 19:00 -1,0 C 89 % 1031,7 hPa 0,0 l/m S-SW 0,00 h 0 W/m 5,9 km/h (2 Bft)
18.01.2012 20:00 -1,1 C 91 % 1031,4 hPa 0,0 l/m S 0,00 h 0 W/m 9,4 km/h (2 Bft)
18.01.2012 21:00 -1,0 C 92 % 1031,2 hPa 0,0 l/m SO 0,00 h 0 W/m 6,3 km/h (2 Bft)
18.01.2012 22:00 -1,1 C 91 % 1030,8 hPa 0,0 l/m S-SW 0,00 h 0 W/m 10,3 km/h (2 Bft)
18.01.2012 23:00 -0,3 C 87 % 1030,4 hPa 0,0 l/m SW 0,00 h 0 W/m 18,1 km/h (3 Bft)
19.01.2012 00:00 0,3 C 85 % 1030,2 hPa 0,0 l/m SW 0,00 h 0 W/m 16,2 km/h (3 Bft)
19.01.2012 01:00 2,1 C 76 % 1029,8 hPa 0,0 l/m SW 0,00 h 0 W/m 22,4 km/h (4 Bft)
19.01.2012 02:00 1,2 C 85 % 1029,6 hPa 2,2 l/m SW 0,00 h 0 W/m 12,4 km/h (3 Bft)
19.01.2012 03:00 0,7 C 94 % 1029,0 hPa 1,0 l/m SW 0,00 h 0 W/m 14,5 km/h (3 Bft)
19.01.2012 04:00 0,9 C 94 % 1028,6 hPa 0,6 l/m SW 0,00 h 0 W/m 18,0 km/h (3 Bft)
19.01.2012 05:00 1,2 C 94 % 1028,2 hPa 0,8 l/m SW 0,00 h 0 W/m 20,9 km/h (4 Bft)
19.01.2012 06:00 1,4 C 94 % 1027,8 hPa 0,0 l/m SW 0,00 h 0 W/m 22,0 km/h (4 Bft)
19.01.2012 07:00 2,6 C 93 % 1027,2 hPa 0,0 l/m W-SW 0,00 h 0 W/m 33,0 km/h (5 Bft)
19.01.2012 08:00 3,6 C 91 % 1026,6 hPa 0,0 l/m W-SW 0,00 h 5 W/m 25,1 km/h (4 Bft)
19.01.2012 09:00 3,8 C 89 % 1026,1 hPa 0,0 l/m W-SW 0,00 h 16 W/m 24,6 km/h (4 Bft)
19.01.2012 10:00 4,8 C 88 % 1025,5 hPa 0,0 l/m SW 0,00 h 40 W/m 37,5 km/h (5 Bft)
19.01.2012 11:00 5,5 C 90 % 1025,1 hPa 0,0 l/m W-SW 0,00 h 47 W/m 38,8 km/h (5 Bft)
19.01.2012 12:00 6,1 C 90 % 1024,1 hPa 0,0 l/m W 0,00 h 66 W/m 35,7 km/h (5 Bft)
19.01.2012 13:00 6,3 C 91 % 1023,1 hPa 0,0 l/m W-SW 0,00 h 43 W/m 36,5 km/h (5 Bft)
19.01.2012 14:00 6,4 C 92 % 1022,1 hPa 0,0 l/m SW 0,00 h 39 W/m 38,7 km/h (5 Bft)
19.01.2012 15:00 6,5 C 92 % 1021,4 hPa 0,0 l/m SW 0,00 h 35 W/m 40,8 km/h (6 Bft)
19.01.2012 16:00 6,4 C 94 % 1020,8 hPa 0,0 l/m W-SW 0,00 h 10 W/m 37,5 km/h (5 Bft)
19.01.2012 17:00 6,8 C 94 % 1020,9 hPa 0,0 l/m W-SW 0,00 h 0 W/m 31,8 km/h (5 Bft)
19.01.2012 18:00 7,2 C 92 % 1020,8 hPa 0,0 l/m W 0,00 h 0 W/m 30,3 km/h (5 Bft)
19.01.2012 19:00 7,2 C 92 % 1020,2 hPa 2,0 l/m W-SW 0,00 h 0 W/m 35,7 km/h (5 Bft)
19.01.2012 20:00 6,8 C 95 % 1019,5 hPa 1,2 l/m W 0,00 h 0 W/m 33,9 km/h (5 Bft)
19.01.2012 21:00 6,8 C 94 % 1018,7 hPa 0,8 l/m W-SW 0,00 h 0 W/m 34,6 km/h (5 Bft)
19.01.2012 22:00 6,5 C 94 % 1018,2 hPa 0,2 l/m W 0,00 h 0 W/m 34,1 km/h (5 Bft)
19.01.2012 23:00 6,5 C 93 % 1017,4 hPa 0,0 l/m W-SW 0,00 h 0 W/m 33,9 km/h (5 Bft)
20.01.2012 00:00 6,6 C 93 % 1016,7 hPa 0,0 l/m W-SW 0,00 h 0 W/m 30,4 km/h (5 Bft)
20.01.2012 01:00 6,5 C 93 % 1016,0 hPa 0,2 l/m W-SW 0,00 h 0 W/m 34,8 km/h (5 Bft)
20.01.2012 02:00 6,4 C 92 % 1015,8 hPa 0,8 l/m W 0,00 h 0 W/m 32,6 km/h (5 Bft)
20.01.2012 03:00 6,0 C 95 % 1015,0 hPa 1,6 l/m W 0,00 h 0 W/m 23,1 km/h (4 Bft)
20.01.2012 04:00 5,8 C 95 % 1013,9 hPa 0,6 l/m W 0,00 h 0 W/m 28,4 km/h (4 Bft)
20.01.2012 05:00 5,2 C 94 % 1013,3 hPa 0,2 l/m W-NW 0,00 h 0 W/m 21,7 km/h (4 Bft)
20.01.2012 06:00 5,2 C 87 % 1013,2 hPa 0,0 l/m W 0,00 h 0 W/m 30,9 km/h (5 Bft)
20.01.2012 07:00 4,4 C 84 % 1014,3 hPa 0,0 l/m W-NW 0,00 h 0 W/m 22,6 km/h (4 Bft)
20.01.2012 08:00 3,1 C 91 % 1015,4 hPa 1,4 l/m NW 0,00 h 5 W/m 14,9 km/h (3 Bft)
20.01.2012 09:00 1,4 C 93 % 1016,9 hPa 0,4 l/m NW 0,00 h 9 W/m 21,4 km/h (4 Bft)
20.01.2012 10:00 1,1 C 94 % 1017,7 hPa 1,2 l/m NW 0,00 h 53 W/m 18,4 km/h (3 Bft)
20.01.2012 11:00 1,5 C 91 % 1018,7 hPa 0,8 l/m NW 0,08 h 110 W/m 15,0 km/h (3 Bft)
20.01.2012 12:00 2,1 C 89 % 1019,0 hPa 0,2 l/m W 0,00 h 102 W/m 14,0 km/h (3 Bft)
20.01.2012 13:00 2,2 C 89 % 1018,6 hPa 0,0 l/m W 0,00 h 103 W/m 16,1 km/h (3 Bft)
20.01.2012 14:00 2,5 C 85 % 1018,2 hPa 0,0 l/m W 0,00 h 67 W/m 20,9 km/h (4 Bft)
20.01.2012 15:00 2,0 C 90 % 1017,4 hPa 0,0 l/m W 0,17 h 63 W/m 11,6 km/h (2 Bft)
20.01.2012 16:00 2,1 C 88 % 1016,7 hPa 0,0 l/m W 0,00 h 19 W/m 18,8 km/h (3 Bft)
20.01.2012 17:00 1,5 C 92 % 1015,8 hPa 0,4 l/m W-SW 0,00 h 0 W/m 12,9 km/h (3 Bft)
20.01.2012 18:00 1,3 C 95 % 1014,8 hPa 0,6 l/m W-SW 0,00 h 0 W/m 19,0 km/h (3 Bft)
20.01.2012 19:00 1,3 C 95 % 1013,9 hPa 0,2 l/m W 0,00 h 0 W/m 23,9 km/h (4 Bft)
20.01.2012 20:00 1,3 C 95 % 1013,7 hPa 0,6 l/m SW 0,00 h 0 W/m 25,7 km/h (4 Bft)
20.01.2012 21:00 1,3 C 96 % 1014,4 hPa 1,2 l/m W-SW 0,00 h 0 W/m 24,8 km/h (4 Bft)
20.01.2012 22:00 1,3 C 96 % 1015,1 hPa 0,4 l/m W-NW 0,00 h 0 W/m 17,6 km/h (3 Bft)
20.01.2012 23:00 1,3 C 96 % 1016,2 hPa 1,6 l/m W 0,00 h 0 W/m 14,8 km/h (3 Bft)
21.01.2012 00:00 1,1 C 96 % 1017,0 hPa 0,4 l/m W-NW 0,00 h 0 W/m 10,6 km/h (2 Bft)
21.01.2012 01:00 0,9 C 97 % 1017,4 hPa 0,0 l/m NW 0,00 h 0 W/m 8,4 km/h (2 Bft)
21.01.2012 02:00 0,6 C 96 % 1018,4 hPa 0,0 l/m N 0,00 h 0 W/m 2,0 km/h (1 Bft)
21.01.2012 03:00 0,4 C 96 % 1018,5 hPa 0,0 l/m N 0,00 h 0 W/m 1,1 km/h (0 Bft)
21.01.2012 04:00 0,2 C 96 % 1018,4 hPa 0,0 l/m NW 0,00 h 0 W/m 1,7 km/h (1 Bft)
21.01.2012 05:00 0,1 C 97 % 1018,1 hPa 0,0 l/m NW 0,00 h 0 W/m 4,7 km/h (1 Bft)
21.01.2012 06:00 0,2 C 97 % 1017,9 hPa 0,2 l/m SW 0,00 h 0 W/m 8,2 km/h (2 Bft)
21.01.2012 07:00 0,3 C 97 % 1017,6 hPa 0,4 l/m S-SW 0,00 h 0 W/m 8,5 km/h (2 Bft)
21.01.2012 08:00 0,3 C 98 % 1017,3 hPa 1,0 l/m SW 0,00 h 7 W/m 19,7 km/h (3 Bft)
21.01.2012 09:00 0,3 C 98 % 1017,1 hPa 1,4 l/m W-SW 0,00 h 12 W/m 17,7 km/h (3 Bft)
21.01.2012 10:00 0,8 C 98 % 1017,0 hPa 1,8 l/m W-SW 0,00 h 20 W/m 21,4 km/h (4 Bft)
21.01.2012 11:00 1,8 C 98 % 1016,5 hPa 0,2 l/m W-SW 0,00 h 62 W/m 25,3 km/h (4 Bft)
21.01.2012 12:00 3,1 C 98 % 1015,5 hPa 0,0 l/m SW 0,00 h 57 W/m 34,3 km/h (5 Bft)
21.01.2012 13:00 3,6 C 96 % 1014,3 hPa 0,0 l/m W 0,00 h 48 W/m 38,6 km/h (5 Bft)
21.01.2012 14:00 4,0 C 96 % 1014,2 hPa 0,0 l/m W-SW 0,00 h 33 W/m 39,0 km/h (6 Bft)
21.01.2012 15:00 4,4 C 96 % 1013,6 hPa 0,0 l/m SW 0,00 h 26 W/m 37,4 km/h (5 Bft)
21.01.2012 16:00 4,9 C 96 % 1013,0 hPa 0,0 l/m SW 0,00 h 7 W/m 37,3 km/h (5 Bft)
21.01.2012 17:00 5,3 C 95 % 1012,9 hPa 0,0 l/m W 0,00 h 0 W/m 31,3 km/h (5 Bft)
21.01.2012 18:00 5,6 C 95 % 1011,9 hPa 0,0 l/m W-SW 0,00 h 0 W/m 35,8 km/h (5 Bft)
21.01.2012 19:00 6,1 C 94 % 1010,3 hPa 0,0 l/m SW 0,00 h 0 W/m 40,6 km/h (6 Bft)
21.01.2012 20:00 6,3 C 94 % 1009,6 hPa 0,2 l/m W-SW 0,00 h 0 W/m 39,8 km/h (6 Bft)
21.01.2012 21:00 6,4 C 95 % 1009,6 hPa 0,2 l/m W-SW 0,00 h 0 W/m 35,3 km/h (5 Bft)
21.01.2012 22:00 6,5 C 95 % 1009,0 hPa 0,0 l/m W-SW 0,00 h 0 W/m 39,0 km/h (6 Bft)
21.01.2012 23:00 6,9 C 93 % 1008,9 hPa 0,0 l/m W-SW 0,00 h 0 W/m 42,2 km/h (6 Bft)
22.01.2012 00:00 7,3 C 92 % 1008,9 hPa 0,2 l/m W-SW 0,00 h 0 W/m 40,0 km/h (6 Bft)
22.01.2012 01:00 7,2 C 94 % 1010,1 hPa 1,6 l/m W-NW 0,00 h 0 W/m 27,5 km/h (4 Bft)
22.01.2012 02:00 6,8 C 92 % 1010,8 hPa 0,6 l/m W 0,00 h 0 W/m 28,4 km/h (4 Bft)
22.01.2012 03:00 5,4 C 92 % 1012,0 hPa 1,6 l/m W-NW 0,00 h 0 W/m 22,5 km/h (4 Bft)
22.01.2012 04:00 4,6 C 93 % 1012,5 hPa 0,6 l/m W-NW 0,00 h 0 W/m 30,0 km/h (5 Bft)
22.01.2012 05:00 4,0 C 86 % 1012,7 hPa 0,0 l/m W-NW 0,00 h 0 W/m 24,7 km/h (4 Bft)
22.01.2012 06:00 3,4 C 86 % 1013,4 hPa 0,0 l/m W-NW 0,00 h 0 W/m 13,6 km/h (3 Bft)
22.01.2012 07:00 2,9 C 87 % 1013,6 hPa 0,0 l/m W 0,00 h 0 W/m 13,4 km/h (3 Bft)
22.01.2012 08:00 2,8 C 90 % 1014,0 hPa 0,0 l/m W-SW 0,00 h 8 W/m 8,3 km/h (2 Bft)
22.01.2012 09:00 3,4 C 90 % 1014,0 hPa 0,0 l/m W 0,00 h 18 W/m 10,9 km/h (2 Bft)
22.01.2012 10:00 4,0 C 91 % 1013,7 hPa 0,2 l/m W-SW 0,00 h 51 W/m 17,5 km/h (3 Bft)
22.01.2012 11:00 4,7 C 85 % 1014,2 hPa 0,0 l/m W-SW 0,00 h 70 W/m 24,9 km/h (4 Bft)
22.01.2012 12:00 5,1 C 85 % 1013,4 hPa 0,0 l/m W-SW 0,08 h 145 W/m 28,0 km/h (4 Bft)
22.01.2012 13:00 5,7 C 79 % 1012,7 hPa 0,0 l/m W-SW 0,00 h 103 W/m 33,9 km/h (5 Bft)
22.01.2012 14:00 5,8 C 78 % 1012,1 hPa 0,0 l/m W 0,00 h 50 W/m 38,8 km/h (5 Bft)
22.01.2012 15:00 6,1 C 77 % 1011,3 hPa 0,0 l/m W-SW 0,00 h 51 W/m 41,7 km/h (6 Bft)
22.01.2012 16:00 5,8 C 79 % 1011,8 hPa 0,0 l/m W 0,00 h 9 W/m 40,1 km/h (6 Bft)
22.01.2012 17:00 5,4 C 81 % 1012,3 hPa 0,0 l/m W-SW 0,00 h 0 W/m 32,7 km/h (5 Bft)
22.01.2012 18:00 5,3 C 84 % 1012,7 hPa 0,0 l/m W 0,00 h 0 W/m 33,5 km/h (5 Bft)
22.01.2012 19:00 5,6 C 81 % 1013,1 hPa 0,0 l/m W-SW 0,00 h 0 W/m 33,7 km/h (5 Bft)
22.01.2012 20:00 5,6 C 80 % 1013,5 hPa 0,0 l/m SW 0,00 h 0 W/m 25,3 km/h (4 Bft)
22.01.2012 21:00 5,3 C 84 % 1014,5 hPa 0,0 l/m W-SW 0,00 h 0 W/m 27,3 km/h (4 Bft)
22.01.2012 22:00 4,9 C 88 % 1014,9 hPa 0,0 l/m W 0,00 h 0 W/m 21,7 km/h (4 Bft)
22.01.2012 23:00 4,7 C 90 % 1015,4 hPa 0,0 l/m W-SW 0,00 h 0 W/m 20,0 km/h (4 Bft)
Min-Datum _ 17.01.12 16.01.12 21.01.12 - - - - 17.01.12
_ Min-Zeit 07:45 14:30 22:40 - - - - 00:15
Minimum _ -8,4 C 68 % 1008,5 hPa - - - - 0,0 km/h (0 Bft)
Max-Datum _ 22.01.12 21.01.12 18.01.12 19.01.12 - 16.01.12 17.01.12 22.01.12
_ Max-Zeit 00:45 11:20 08:50 02:40 - 09:45 12:00 00:50
Maximum _ 7,5 C 99 % 1034,1 hPa 2,2 l/m - 0,08 h 492 W/m 61,2 km/h
W (7 Bft)
Durchschnitt _ 0,7 C 89 % 1022,2 hPa #32,0 l/m W-SW #17:00 h 102 W/m 17,1 km/h (3 Bft)